sensor_id;sensor_type;location;lat;lon;timestamp;pressure;altitude;pressure_sealevel;temperature;humidity
6680;BME280;3376;42.664;23.346;2023-08-08T00:01:18;94413.41;;;18.65;100.00
6680;BME280;3376;42.664;23.346;2023-08-08T00:03:45;94421.38;;;18.47;100.00
6680;BME280;3376;42.664;23.346;2023-08-08T00:06:12;94431.53;;;18.43;100.00
6680;BME280;3376;42.664;23.346;2023-08-08T00:08:39;94406.59;;;18.23;100.00
6680;BME280;3376;42.664;23.346;2023-08-08T00:11:08;94415.16;;;18.30;100.00
6680;BME280;3376;42.664;23.346;2023-08-08T00:13:34;94421.56;;;18.34;100.00
6680;BME280;3376;42.664;23.346;2023-08-08T00:16:01;94415.97;;;18.30;100.00
6680;BME280;3376;42.664;23.346;2023-08-08T00:18:28;94415.50;;;18.22;100.00
6680;BME280;3376;42.664;23.346;2023-08-08T00:20:55;94421.28;;;18.24;100.00
6680;BME280;3376;42.664;23.346;2023-08-08T00:23:22;94431.13;;;18.17;100.00
6680;BME280;3376;42.664;23.346;2023-08-08T00:25:49;94418.31;;;18.20;100.00
6680;BME280;3376;42.664;23.346;2023-08-08T00:28:18;94421.75;;;18.21;100.00
6680;BME280;3376;42.664;23.346;2023-08-08T00:30:44;94425.19;;;18.33;100.00
6680;BME280;3376;42.664;23.346;2023-08-08T00:33:11;94431.59;;;18.37;100.00
6680;BME280;3376;42.664;23.346;2023-08-08T00:35:38;94435.13;;;18.31;100.00
6680;BME280;3376;42.664;23.346;2023-08-08T00:38:05;94441.03;;;18.26;100.00
6680;BME280;3376;42.664;23.346;2023-08-08T00:40:31;94434.28;;;18.19;100.00
6680;BME280;3376;42.664;23.346;2023-08-08T00:42:58;94427.09;;;18.14;100.00
6680;BME280;3376;42.664;23.346;2023-08-08T00:45:26;94431.88;;;18.06;100.00
6680;BME280;3376;42.664;23.346;2023-08-08T00:47:53;94441.19;;;18.02;100.00
6680;BME280;3376;42.664;23.346;2023-08-08T00:50:21;94439.56;;;17.89;100.00
6680;BME280;3376;42.664;23.346;2023-08-08T00:52:48;94439.78;;;17.88;100.00
6680;BME280;3376;42.664;23.346;2023-08-08T00:55:15;94411.69;;;17.77;100.00
6680;BME280;3376;42.664;23.346;2023-08-08T00:57:42;94454.38;;;17.95;100.00
6680;BME280;3376;42.664;23.346;2023-08-08T01:00:10;94448.78;;;17.92;100.00
6680;BME280;3376;42.664;23.346;2023-08-08T01:02:38;94437.94;;;17.88;100.00
6680;BME280;3376;42.664;23.346;2023-08-08T01:05:06;94452.16;;;17.81;100.00
6680;BME280;3376;42.664;23.346;2023-08-08T01:07:41;94448.59;;;17.75;100.00
6680;BME280;3376;42.664;23.346;2023-08-08T01:10:12;94350.56;;;17.17;100.00
6680;BME280;3376;42.664;23.346;2023-08-08T01:12:41;94447.47;;;18.01;100.00
6680;BME280;3376;42.664;23.346;2023-08-08T01:15:11;94451.41;;;17.92;100.00
6680;BME280;3376;42.664;23.346;2023-08-08T01:17:41;94452.00;;;17.94;100.00
6680;BME280;3376;42.664;23.346;2023-08-08T01:20:09;94456.50;;;17.87;100.00
6680;BME280;3376;42.664;23.346;2023-08-08T01:22:42;94429.69;;;17.73;100.00
6680;BME280;3376;42.664;23.346;2023-08-08T01:25:13;94450.56;;;17.80;100.00
6680;BME280;3376;42.664;23.346;2023-08-08T01:27:40;94464.09;;;17.77;100.00
6680;BME280;3376;42.664;23.346;2023-08-08T01:30:08;94451.00;;;17.77;100.00
6680;BME280;3376;42.664;23.346;2023-08-08T01:32:36;94457.69;;;17.73;100.00
6680;BME280;3376;42.664;23.346;2023-08-08T01:35:03;94461.72;;;17.75;100.00
6680;BME280;3376;42.664;23.346;2023-08-08T01:37:36;94468.44;;;17.83;100.00
6680;BME280;3376;42.664;23.346;2023-08-08T01:40:07;94476.25;;;17.89;100.00
6680;BME280;3376;42.664;23.346;2023-08-08T01:42:37;94451.44;;;17.74;100.00
6680;BME280;3376;42.664;23.346;2023-08-08T01:45:05;94482.00;;;17.80;100.00
6680;BME280;3376;42.664;23.346;2023-08-08T01:47:33;94497.06;;;17.66;100.00
6680;BME280;3376;42.664;23.346;2023-08-08T01:50:00;94499.28;;;17.51;100.00
6680;BME280;3376;42.664;23.346;2023-08-08T01:52:27;94497.31;;;17.46;100.00
6680;BME280;3376;42.664;23.346;2023-08-08T01:54:54;94492.53;;;17.37;100.00
6680;BME280;3376;42.664;23.346;2023-08-08T01:57:20;94514.19;;;17.50;100.00
6680;BME280;3376;42.664;23.346;2023-08-08T01:59:49;94505.81;;;17.60;100.00
6680;BME280;3376;42.664;23.346;2023-08-08T02:02:16;94507.94;;;17.70;100.00
6680;BME280;3376;42.664;23.346;2023-08-08T02:04:43;94527.59;;;17.79;100.00
6680;BME280;3376;42.664;23.346;2023-08-08T02:07:10;94517.66;;;17.99;100.00
6680;BME280;3376;42.664;23.346;2023-08-08T02:09:37;94511.81;;;18.15;98.50
6680;BME280;3376;42.664;23.346;2023-08-08T02:12:04;94520.25;;;18.17;97.99
6680;BME280;3376;42.664;23.346;2023-08-08T02:14:31;94519.09;;;18.13;98.69
6680;BME280;3376;42.664;23.346;2023-08-08T02:16:59;94417.63;;;17.54;97.94
6680;BME280;3376;42.664;23.346;2023-08-08T02:19:26;94515.41;;;18.02;97.50
6680;BME280;3376;42.664;23.346;2023-08-08T02:21:52;94527.28;;;18.05;99.31
6680;BME280;3376;42.664;23.346;2023-08-08T02:24:19;94527.31;;;18.16;98.91
6680;BME280;3376;42.664;23.346;2023-08-08T02:26:46;94542.47;;;18.14;97.40
6680;BME280;3376;42.664;23.346;2023-08-08T02:29:13;94552.88;;;18.21;96.69
6680;BME280;3376;42.664;23.346;2023-08-08T02:31:39;94548.34;;;18.28;96.42
6680;BME280;3376;42.664;23.346;2023-08-08T02:34:07;94534.78;;;18.01;97.38
6680;BME280;3376;42.664;23.346;2023-08-08T02:36:34;94546.00;;;17.90;98.80
6680;BME280;3376;42.664;23.346;2023-08-08T02:39:01;94548.31;;;17.80;99.88
6680;BME280;3376;42.664;23.346;2023-08-08T02:41:28;94545.63;;;17.69;100.00
6680;BME280;3376;42.664;23.346;2023-08-08T02:43:55;94549.56;;;17.59;100.00
6680;BME280;3376;42.664;23.346;2023-08-08T02:46:22;94540.81;;;17.47;100.00
6680;BME280;3376;42.664;23.346;2023-08-08T02:48:48;94560.84;;;17.35;100.00
6680;BME280;3376;42.664;23.346;2023-08-08T02:51:16;94568.31;;;17.32;100.00
6680;BME280;3376;42.664;23.346;2023-08-08T02:53:43;94532.28;;;17.09;100.00
6680;BME280;3376;42.664;23.346;2023-08-08T02:56:10;94562.56;;;17.23;100.00
6680;BME280;3376;42.664;23.346;2023-08-08T02:58:37;94570.41;;;17.23;100.00
6680;BME280;3376;42.664;23.346;2023-08-08T03:01:03;94569.81;;;17.21;100.00
6680;BME280;3376;42.664;23.346;2023-08-08T03:03:30;94575.66;;;17.23;100.00
6680;BME280;3376;42.664;23.346;2023-08-08T03:05:57;94565.25;;;17.17;100.00
6680;BME280;3376;42.664;23.346;2023-08-08T03:08:25;94571.00;;;17.25;100.00
6680;BME280;3376;42.664;23.346;2023-08-08T03:10:53;94557.22;;;17.12;100.00
6680;BME280;3376;42.664;23.346;2023-08-08T03:13:19;94552.75;;;17.19;100.00
6680;BME280;3376;42.664;23.346;2023-08-08T03:15:48;94566.53;;;17.32;100.00
6680;BME280;3376;42.664;23.346;2023-08-08T03:18:14;94576.53;;;17.17;100.00
6680;BME280;3376;42.664;23.346;2023-08-08T03:20:41;94570.94;;;17.07;100.00
6680;BME280;3376;42.664;23.346;2023-08-08T03:23:08;94575.81;;;17.04;100.00
6680;BME280;3376;42.664;23.346;2023-08-08T03:25:36;94579.06;;;16.99;100.00
6680;BME280;3376;42.664;23.346;2023-08-08T03:28:03;94568.91;;;17.09;100.00
6680;BME280;3376;42.664;23.346;2023-08-08T03:30:30;94568.59;;;16.99;100.00
6680;BME280;3376;42.664;23.346;2023-08-08T03:32:56;94576.03;;;17.02;100.00
6680;BME280;3376;42.664;23.346;2023-08-08T03:35:23;94573.25;;;16.97;100.00
6680;BME280;3376;42.664;23.346;2023-08-08T03:37:50;94580.72;;;16.94;100.00
6680;BME280;3376;42.664;23.346;2023-08-08T03:40:17;94581.78;;;16.86;100.00
6680;BME280;3376;42.664;23.346;2023-08-08T03:42:45;94587.94;;;16.98;100.00
6680;BME280;3376;42.664;23.346;2023-08-08T03:45:12;94580.41;;;17.08;100.00
6680;BME280;3376;42.664;23.346;2023-08-08T03:47:39;94563.53;;;17.04;100.00
6680;BME280;3376;42.664;23.346;2023-08-08T03:50:07;94575.28;;;17.20;100.00
6680;BME280;3376;42.664;23.346;2023-08-08T03:52:34;94424.59;;;16.32;100.00
6680;BME280;3376;42.664;23.346;2023-08-08T03:55:03;94587.78;;;17.42;100.00
6680;BME280;3376;42.664;23.346;2023-08-08T03:57:30;94583.66;;;17.28;100.00
6680;BME280;3376;42.664;23.346;2023-08-08T03:59:58;94580.59;;;17.31;100.00
6680;BME280;3376;42.664;23.346;2023-08-08T04:02:25;94583.50;;;17.23;100.00
6680;BME280;3376;42.664;23.346;2023-08-08T04:04:53;94580.41;;;17.33;100.00
6680;BME280;3376;42.664;23.346;2023-08-08T04:07:20;94591.25;;;17.36;100.00
6680;BME280;3376;42.664;23.346;2023-08-08T04:09:46;94603.94;;;17.39;100.00
6680;BME280;3376;42.664;23.346;2023-08-08T04:12:13;94585.97;;;17.18;100.00
6680;BME280;3376;42.664;23.346;2023-08-08T04:14:40;94607.94;;;17.17;100.00
6680;BME280;3376;42.664;23.346;2023-08-08T04:17:08;94612.75;;;17.20;100.00
6680;BME280;3376;42.664;23.346;2023-08-08T04:19:35;94621.22;;;17.16;100.00
6680;BME280;3376;42.664;23.346;2023-08-08T04:22:02;94625.25;;;17.18;100.00
6680;BME280;3376;42.664;23.346;2023-08-08T04:24:28;94615.97;;;17.22;100.00
6680;BME280;3376;42.664;23.346;2023-08-08T04:26:55;94633.53;;;17.46;100.00
6680;BME280;3376;42.664;23.346;2023-08-08T04:29:22;94637.97;;;17.39;100.00
6680;BME280;3376;42.664;23.346;2023-08-08T04:31:49;94642.78;;;17.42;100.00
6680;BME280;3376;42.664;23.346;2023-08-08T04:34:17;94631.28;;;17.43;100.00
6680;BME280;3376;42.664;23.346;2023-08-08T04:36:44;94618.78;;;17.45;100.00
6680;BME280;3376;42.664;23.346;2023-08-08T04:39:10;94645.78;;;17.71;100.00
6680;BME280;3376;42.664;23.346;2023-08-08T04:41:37;94640.91;;;17.74;100.00
6680;BME280;3376;42.664;23.346;2023-08-08T04:44:04;94621.25;;;17.65;98.80
6680;BME280;3376;42.664;23.346;2023-08-08T04:46:31;94634.06;;;17.73;99.25
6680;BME280;3376;42.664;23.346;2023-08-08T04:48:57;94629.50;;;17.87;98.86
6680;BME280;3376;42.664;23.346;2023-08-08T04:51:25;94636.06;;;17.96;96.82
6680;BME280;3376;42.664;23.346;2023-08-08T04:53:52;94631.34;;;18.04;95.35
6680;BME280;3376;42.664;23.346;2023-08-08T04:56:19;94619.91;;;17.99;95.58
6680;BME280;3376;42.664;23.346;2023-08-08T04:58:46;94640.19;;;18.03;93.92
6680;BME280;3376;42.664;23.346;2023-08-08T05:01:12;94654.94;;;18.04;94.79
6680;BME280;3376;42.664;23.346;2023-08-08T05:03:41;94640.44;;;18.02;94.76
6680;BME280;3376;42.664;23.346;2023-08-08T05:06:08;94659.06;;;18.12;95.14
6680;BME280;3376;42.664;23.346;2023-08-08T05:08:36;94675.84;;;18.11;95.60
6680;BME280;3376;42.664;23.346;2023-08-08T05:11:02;94670.38;;;18.12;95.42
6680;BME280;3376;42.664;23.346;2023-08-08T05:13:29;94668.69;;;18.36;95.55
6680;BME280;3376;42.664;23.346;2023-08-08T05:15:56;94697.72;;;18.59;91.96
6680;BME280;3376;42.664;23.346;2023-08-08T05:18:23;94699.47;;;18.65;91.07
6680;BME280;3376;42.664;23.346;2023-08-08T05:20:49;94694.81;;;18.67;89.54
6680;BME280;3376;42.664;23.346;2023-08-08T05:23:16;94701.94;;;18.78;89.45
6680;BME280;3376;42.664;23.346;2023-08-08T05:25:45;94709.31;;;18.69;89.04
6680;BME280;3376;42.664;23.346;2023-08-08T05:28:12;94688.97;;;18.65;89.66
6680;BME280;3376;42.664;23.346;2023-08-08T05:30:38;94703.47;;;18.49;90.25
6680;BME280;3376;42.664;23.346;2023-08-08T05:33:05;94704.41;;;18.37;90.31
6680;BME280;3376;42.664;23.346;2023-08-08T05:35:32;94709.75;;;18.48;92.42
6680;BME280;3376;42.664;23.346;2023-08-08T05:37:58;94711.72;;;18.71;89.90
6680;BME280;3376;42.664;23.346;2023-08-08T05:40:25;94723.66;;;18.85;89.26
6680;BME280;3376;42.664;23.346;2023-08-08T05:42:53;94728.84;;;18.92;87.64
6680;BME280;3376;42.664;23.346;2023-08-08T05:45:20;94734.63;;;19.12;86.24
6680;BME280;3376;42.664;23.346;2023-08-08T05:47:47;94725.78;;;19.24;85.69
6680;BME280;3376;42.664;23.346;2023-08-08T05:50:14;94728.84;;;19.21;85.33
6680;BME280;3376;42.664;23.346;2023-08-08T05:52:40;94747.09;;;19.16;86.17
6680;BME280;3376;42.664;23.346;2023-08-08T05:55:08;94624.84;;;18.43;85.17
6680;BME280;3376;42.664;23.346;2023-08-08T05:57:35;94704.63;;;18.90;83.58
6680;BME280;3376;42.664;23.346;2023-08-08T06:00:05;94704.44;;;18.73;82.90
6680;BME280;3376;42.664;23.346;2023-08-08T06:02:36;94747.72;;;19.00;83.02
6680;BME280;3376;42.664;23.346;2023-08-08T06:05:03;94771.25;;;19.07;83.32
6680;BME280;3376;42.664;23.346;2023-08-08T06:07:30;94737.66;;;18.97;83.52
6680;BME280;3376;42.664;23.346;2023-08-08T06:09:57;94759.59;;;19.50;82.51
6680;BME280;3376;42.664;23.346;2023-08-08T06:12:23;94760.56;;;19.67;81.62
6680;BME280;3376;42.664;23.346;2023-08-08T06:14:50;94763.06;;;19.74;82.53
6680;BME280;3376;42.664;23.346;2023-08-08T06:17:18;94755.31;;;19.90;81.73
6680;BME280;3376;42.664;23.346;2023-08-08T06:19:45;94762.31;;;19.97;80.64
6680;BME280;3376;42.664;23.346;2023-08-08T06:22:12;94744.91;;;19.84;81.00
6680;BME280;3376;42.664;23.346;2023-08-08T06:24:38;94740.13;;;20.04;79.48
6680;BME280;3376;42.664;23.346;2023-08-08T06:27:05;94744.78;;;19.79;78.75
6680;BME280;3376;42.664;23.346;2023-08-08T06:29:32;94756.19;;;19.73;77.64
6680;BME280;3376;42.664;23.346;2023-08-08T06:31:59;94746.44;;;19.92;77.00
6680;BME280;3376;42.664;23.346;2023-08-08T06:34:27;94754.00;;;20.23;77.12
6680;BME280;3376;42.664;23.346;2023-08-08T06:36:54;94760.19;;;20.40;75.92
6680;BME280;3376;42.664;23.346;2023-08-08T06:39:20;94742.78;;;20.39;72.41
6680;BME280;3376;42.664;23.346;2023-08-08T06:41:47;94759.63;;;20.49;72.06
6680;BME280;3376;42.664;23.346;2023-08-08T06:44:14;94727.59;;;20.41;71.59
6680;BME280;3376;42.664;23.346;2023-08-08T06:46:41;94750.09;;;20.60;72.39
6680;BME280;3376;42.664;23.346;2023-08-08T06:49:07;94750.88;;;20.60;71.95
6680;BME280;3376;42.664;23.346;2023-08-08T06:51:36;94733.75;;;20.35;72.86
6680;BME280;3376;42.664;23.346;2023-08-08T06:54:02;94749.00;;;20.33;71.77
6680;BME280;3376;42.664;23.346;2023-08-08T06:56:29;94750.00;;;20.32;72.13
6680;BME280;3376;42.664;23.346;2023-08-08T06:58:56;94756.75;;;20.39;67.76
6680;BME280;3376;42.664;23.346;2023-08-08T07:01:23;94765.66;;;20.15;67.48
6680;BME280;3376;42.664;23.346;2023-08-08T07:03:50;94744.91;;;19.96;67.84
6680;BME280;3376;42.664;23.346;2023-08-08T07:06:17;94756.50;;;20.18;68.22
6680;BME280;3376;42.664;23.346;2023-08-08T07:08:45;94755.38;;;20.14;64.51
6680;BME280;3376;42.664;23.346;2023-08-08T07:11:12;94763.69;;;20.11;64.13
6680;BME280;3376;42.664;23.346;2023-08-08T07:13:39;94754.09;;;20.05;61.92
6680;BME280;3376;42.664;23.346;2023-08-08T07:16:06;94754.09;;;20.05;62.28
6680;BME280;3376;42.664;23.346;2023-08-08T07:18:32;94749.41;;;20.07;64.50
6680;BME280;3376;42.664;23.346;2023-08-08T07:20:59;94762.22;;;20.15;63.26
6680;BME280;3376;42.664;23.346;2023-08-08T07:23:26;94739.91;;;20.06;64.12
6680;BME280;3376;42.664;23.346;2023-08-08T07:25:54;94749.88;;;20.15;63.17
6680;BME280;3376;42.664;23.346;2023-08-08T07:28:21;94743.13;;;20.19;63.30
6680;BME280;3376;42.664;23.346;2023-08-08T07:30:47;94766.72;;;20.37;63.41
6680;BME280;3376;42.664;23.346;2023-08-08T07:33:14;94747.16;;;20.45;62.00
6680;BME280;3376;42.664;23.346;2023-08-08T07:35:41;94754.09;;;20.62;61.23
6680;BME280;3376;42.664;23.346;2023-08-08T07:38:08;94760.06;;;20.58;62.31
6680;BME280;3376;42.664;23.346;2023-08-08T07:40:35;94764.97;;;20.66;60.31
6680;BME280;3376;42.664;23.346;2023-08-08T07:43:04;94771.78;;;20.90;59.38
6680;BME280;3376;42.664;23.346;2023-08-08T07:45:30;94749.22;;;20.94;58.73
6680;BME280;3376;42.664;23.346;2023-08-08T07:47:57;94764.47;;;20.92;56.93
6680;BME280;3376;42.664;23.346;2023-08-08T07:50:24;94768.63;;;21.28;56.66
6680;BME280;3376;42.664;23.346;2023-08-08T07:52:51;94762.69;;;21.49;56.77
6680;BME280;3376;42.664;23.346;2023-08-08T07:55:17;94764.81;;;21.35;56.95
6680;BME280;3376;42.664;23.346;2023-08-08T07:57:44;94751.13;;;21.22;57.09
6680;BME280;3376;42.664;23.346;2023-08-08T08:00:14;94748.94;;;21.19;56.82
6680;BME280;3376;42.664;23.346;2023-08-08T08:02:45;94755.16;;;21.13;57.16
6680;BME280;3376;42.664;23.346;2023-08-08T08:05:12;94670.63;;;20.74;56.70
6680;BME280;3376;42.664;23.346;2023-08-08T08:07:39;94699.41;;;21.04;56.60
6680;BME280;3376;42.664;23.346;2023-08-08T08:10:08;94756.53;;;21.43;56.74
6680;BME280;3376;42.664;23.346;2023-08-08T08:12:35;94734.50;;;21.49;55.62
6680;BME280;3376;42.664;23.346;2023-08-08T08:15:03;94752.09;;;21.77;55.87
6680;BME280;3376;42.664;23.346;2023-08-08T08:17:32;94717.25;;;21.58;54.38
6680;BME280;3376;42.664;23.346;2023-08-08T08:19:59;94746.06;;;21.93;52.40
6680;BME280;3376;42.664;23.346;2023-08-08T08:22:30;94750.38;;;21.82;53.45
6680;BME280;3376;42.664;23.346;2023-08-08T08:24:57;94750.22;;;21.89;54.08
6680;BME280;3376;42.664;23.346;2023-08-08T08:27:24;94752.00;;;22.33;53.59
6680;BME280;3376;42.664;23.346;2023-08-08T08:29:50;94739.44;;;22.40;53.30
6680;BME280;3376;42.664;23.346;2023-08-08T08:32:17;94755.13;;;22.13;55.11
6680;BME280;3376;42.664;23.346;2023-08-08T08:34:45;94754.38;;;22.18;55.25
6680;BME280;3376;42.664;23.346;2023-08-08T08:37:12;94765.19;;;22.16;54.62
6680;BME280;3376;42.664;23.346;2023-08-08T08:39:39;94751.53;;;22.20;54.25
6680;BME280;3376;42.664;23.346;2023-08-08T08:42:06;94654.19;;;21.57;54.91
6680;BME280;3376;42.664;23.346;2023-08-08T08:44:35;94746.06;;;22.09;54.48
6680;BME280;3376;42.664;23.346;2023-08-08T08:47:03;94745.28;;;22.09;55.03
6680;BME280;3376;42.664;23.346;2023-08-08T08:49:30;94735.38;;;21.99;52.44
6680;BME280;3376;42.664;23.346;2023-08-08T08:51:59;94720.09;;;21.85;53.39
6680;BME280;3376;42.664;23.346;2023-08-08T08:54:27;94760.94;;;22.32;52.38
6680;BME280;3376;42.664;23.346;2023-08-08T08:56:55;94754.91;;;22.53;53.90
6680;BME280;3376;42.664;23.346;2023-08-08T08:59:23;94749.31;;;22.50;53.78
6680;BME280;3376;42.664;23.346;2023-08-08T09:01:50;94728.56;;;22.20;53.64
6680;BME280;3376;42.664;23.346;2023-08-08T09:04:19;94758.75;;;22.46;52.93
6680;BME280;3376;42.664;23.346;2023-08-08T09:06:47;94748.25;;;22.51;53.91
6680;BME280;3376;42.664;23.346;2023-08-08T09:09:16;94768.28;;;22.47;52.69
6680;BME280;3376;42.664;23.346;2023-08-08T09:11:48;94754.22;;;22.41;52.77
6680;BME280;3376;42.664;23.346;2023-08-08T09:14:16;94754.91;;;22.70;51.66
6680;BME280;3376;42.664;23.346;2023-08-08T09:16:43;94735.16;;;22.56;51.84
6680;BME280;3376;42.664;23.346;2023-08-08T09:19:10;94758.72;;;23.00;51.51
6680;BME280;3376;42.664;23.346;2023-08-08T09:21:37;94754.50;;;22.78;50.93
6680;BME280;3376;42.664;23.346;2023-08-08T09:24:04;94766.22;;;22.49;52.34
6680;BME280;3376;42.664;23.346;2023-08-08T09:26:33;94734.56;;;22.15;52.70
6680;BME280;3376;42.664;23.346;2023-08-08T09:29:01;94760.31;;;22.25;53.00
6680;BME280;3376;42.664;23.346;2023-08-08T09:31:28;94759.97;;;22.22;52.74
6680;BME280;3376;42.664;23.346;2023-08-08T09:33:56;94768.81;;;22.10;52.47
6680;BME280;3376;42.664;23.346;2023-08-08T09:36:24;94770.94;;;22.47;52.85
6680;BME280;3376;42.664;23.346;2023-08-08T09:38:51;94733.31;;;22.73;51.28
6680;BME280;3376;42.664;23.346;2023-08-08T09:41:18;94758.22;;;23.25;49.23
6680;BME280;3376;42.664;23.346;2023-08-08T09:43:47;94760.09;;;23.46;49.27
6680;BME280;3376;42.664;23.346;2023-08-08T09:46:14;94772.25;;;23.47;48.83
6680;BME280;3376;42.664;23.346;2023-08-08T09:48:42;94768.53;;;23.70;47.82
6680;BME280;3376;42.664;23.346;2023-08-08T09:51:09;94776.81;;;23.78;46.96
6680;BME280;3376;42.664;23.346;2023-08-08T09:53:36;94768.59;;;24.01;46.56
6680;BME280;3376;42.664;23.346;2023-08-08T09:56:03;94758.38;;;23.88;46.39
6680;BME280;3376;42.664;23.346;2023-08-08T09:58:31;94762.06;;;24.14;46.42
6680;BME280;3376;42.664;23.346;2023-08-08T10:01:00;94763.97;;;24.18;47.55
6680;BME280;3376;42.664;23.346;2023-08-08T10:03:28;94759.16;;;24.15;45.27
6680;BME280;3376;42.664;23.346;2023-08-08T10:05:54;94764.84;;;24.34;45.06
6680;BME280;3376;42.664;23.346;2023-08-08T10:08:21;94764.34;;;24.32;45.19
6680;BME280;3376;42.664;23.346;2023-08-08T10:10:50;94670.88;;;23.68;45.42
6680;BME280;3376;42.664;23.346;2023-08-08T10:13:20;94742.44;;;23.83;45.63
6680;BME280;3376;42.664;23.346;2023-08-08T10:15:47;94761.97;;;24.04;47.33
6680;BME280;3376;42.664;23.346;2023-08-08T10:18:16;94760.47;;;24.13;45.19
6680;BME280;3376;42.664;23.346;2023-08-08T10:20:43;94763.19;;;24.23;44.75
6680;BME280;3376;42.664;23.346;2023-08-08T10:23:10;94755.09;;;24.39;45.22
6680;BME280;3376;42.664;23.346;2023-08-08T10:25:37;94743.75;;;24.44;45.70
6680;BME280;3376;42.664;23.346;2023-08-08T10:28:12;94760.81;;;24.21;46.06
6680;BME280;3376;42.664;23.346;2023-08-08T10:30:43;94765.44;;;24.04;45.89
6680;BME280;3376;42.664;23.346;2023-08-08T10:33:18;94754.34;;;24.07;46.27
6680;BME280;3376;42.664;23.346;2023-08-08T10:35:57;94758.66;;;24.18;45.93
6680;BME280;3376;42.664;23.346;2023-08-08T10:38:25;94756.47;;;24.10;46.44
6680;BME280;3376;42.664;23.346;2023-08-08T10:40:58;94726.13;;;24.23;45.26
6680;BME280;3376;42.664;23.346;2023-08-08T10:43:26;94729.19;;;24.47;45.52
6680;BME280;3376;42.664;23.346;2023-08-08T10:45:57;94732.81;;;24.72;46.03
6680;BME280;3376;42.664;23.346;2023-08-08T10:48:25;94738.16;;;24.87;45.32
6680;BME280;3376;42.664;23.346;2023-08-08T10:50:54;94735.75;;;24.76;44.75
6680;BME280;3376;42.664;23.346;2023-08-08T10:53:22;94729.28;;;24.67;46.05
6680;BME280;3376;42.664;23.346;2023-08-08T10:55:57;94722.50;;;24.76;44.76
6680;BME280;3376;42.664;23.346;2023-08-08T10:58:35;94727.84;;;24.86;44.47
6680;BME280;3376;42.664;23.346;2023-08-08T11:01:02;94724.75;;;25.09;44.05
6680;BME280;3376;42.664;23.346;2023-08-08T11:03:32;94726.28;;;24.95;44.22
6680;BME280;3376;42.664;23.346;2023-08-08T11:06:01;94739.25;;;24.86;43.70
6680;BME280;3376;42.664;23.346;2023-08-08T11:08:29;94728.06;;;24.74;44.19
6680;BME280;3376;42.664;23.346;2023-08-08T11:10:57;94734.69;;;24.72;45.16
6680;BME280;3376;42.664;23.346;2023-08-08T11:13:24;94731.78;;;24.73;44.26
6680;BME280;3376;42.664;23.346;2023-08-08T11:15:51;94732.56;;;24.79;44.47
6680;BME280;3376;42.664;23.346;2023-08-08T11:18:17;94735.75;;;24.76;43.42
6680;BME280;3376;42.664;23.346;2023-08-08T11:20:46;94713.78;;;24.80;43.89
6680;BME280;3376;42.664;23.346;2023-08-08T11:23:13;94720.34;;;24.73;44.58
6680;BME280;3376;42.664;23.346;2023-08-08T11:25:41;94725.03;;;24.61;43.88
6680;BME280;3376;42.664;23.346;2023-08-08T11:28:08;94710.34;;;24.43;44.92
6680;BME280;3376;42.664;23.346;2023-08-08T11:30:37;94722.88;;;24.53;45.27
6680;BME280;3376;42.664;23.346;2023-08-08T11:33:04;94723.03;;;24.78;43.82
6680;BME280;3376;42.664;23.346;2023-08-08T11:35:33;94719.41;;;24.94;43.53
6680;BME280;3376;42.664;23.346;2023-08-08T11:38:02;94719.09;;;24.85;43.48
6680;BME280;3376;42.664;23.346;2023-08-08T11:40:31;94715.91;;;24.83;43.67
6680;BME280;3376;42.664;23.346;2023-08-08T11:42:58;94715.59;;;24.70;44.23
6680;BME280;3376;42.664;23.346;2023-08-08T11:45:25;94720.38;;;24.78;44.17
6680;BME280;3376;42.664;23.346;2023-08-08T11:47:54;94713.16;;;24.68;44.21
6680;BME280;3376;42.664;23.346;2023-08-08T11:50:22;94720.91;;;24.75;44.58
6680;BME280;3376;42.664;23.346;2023-08-08T11:52:51;94712.81;;;25.11;44.25
6680;BME280;3376;42.664;23.346;2023-08-08T11:55:21;94619.03;;;24.56;43.53
6680;BME280;3376;42.664;23.346;2023-08-08T11:57:49;94708.88;;;25.14;43.60
6680;BME280;3376;42.664;23.346;2023-08-08T12:00:16;94709.44;;;25.31;43.17
6680;BME280;3376;42.664;23.346;2023-08-08T12:02:43;94710.03;;;25.38;43.38
6680;BME280;3376;42.664;23.346;2023-08-08T12:05:11;94691.56;;;25.01;43.60
6680;BME280;3376;42.664;23.346;2023-08-08T12:07:40;94693.97;;;25.03;43.46
6680;BME280;3376;42.664;23.346;2023-08-08T12:10:13;94683.25;;;24.73;43.92
6680;BME280;3376;42.664;23.346;2023-08-08T12:12:42;94684.09;;;24.36;45.17
6680;BME280;3376;42.664;23.346;2023-08-08T12:15:10;94683.13;;;24.53;45.61
6680;BME280;3376;42.664;23.346;2023-08-08T12:17:37;94691.72;;;24.70;44.10
6680;BME280;3376;42.664;23.346;2023-08-08T12:20:05;94667.75;;;24.55;44.16
6680;BME280;3376;42.664;23.346;2023-08-08T12:22:33;94661.66;;;24.49;44.75
6680;BME280;3376;42.664;23.346;2023-08-08T12:25:00;94657.28;;;24.70;45.28
6680;BME280;3376;42.664;23.346;2023-08-08T12:27:28;94685.84;;;24.63;45.00
6680;BME280;3376;42.664;23.346;2023-08-08T12:29:57;94573.16;;;23.93;44.87
6680;BME280;3376;42.664;23.346;2023-08-08T12:32:25;94672.88;;;24.66;44.74
6680;BME280;3376;42.664;23.346;2023-08-08T12:34:54;94672.66;;;24.73;44.80
6680;BME280;3376;42.664;23.346;2023-08-08T12:37:21;94684.38;;;24.82;44.95
6680;BME280;3376;42.664;23.346;2023-08-08T12:39:48;94656.50;;;24.74;43.67
6680;BME280;3376;42.664;23.346;2023-08-08T12:42:15;94672.41;;;24.79;43.84
6680;BME280;3376;42.664;23.346;2023-08-08T12:44:42;94666.88;;;24.86;43.93
6680;BME280;3376;42.664;23.346;2023-08-08T12:47:10;94641.34;;;24.65;44.34
6680;BME280;3376;42.664;23.346;2023-08-08T12:49:37;94666.91;;;24.96;44.38
6680;BME280;3376;42.664;23.346;2023-08-08T12:52:04;94611.44;;;24.74;43.51
6680;BME280;3376;42.664;23.346;2023-08-08T12:54:31;94677.06;;;25.19;42.84
6680;BME280;3376;42.664;23.346;2023-08-08T12:56:58;94674.38;;;25.04;43.13
6680;BME280;3376;42.664;23.346;2023-08-08T12:59:24;94669.06;;;25.04;43.22
6680;BME280;3376;42.664;23.346;2023-08-08T13:01:51;94662.44;;;25.11;42.17
6680;BME280;3376;42.664;23.346;2023-08-08T13:04:19;94662.72;;;25.15;42.85
6680;BME280;3376;42.664;23.346;2023-08-08T13:06:47;94658.38;;;24.84;44.00
6680;BME280;3376;42.664;23.346;2023-08-08T13:09:32;94651.66;;;24.66;43.93